Terminal Aerodrome Forecast
Issued by NWS

Home | Current Version | Previous Version | Text Only | Print | Product List | Glossary Off
Versions: 1 2 3 4 5 6 7 8 9 10 11 12 13 14 15 16 17 18 19 20 21 22 23 24 25 26 27 28 29

286
FTUS43 KABR 101127
TAFATY
TAF
KATY 101127Z 1012/1112 13007KT 2SM -SN OVC025
     FM102000 09008KT P6SM -SN OVC015
     FM110300 VRB05KT P6SM OVC015=

USA.gov is the U.S. government's official web portal to all federal, state and local government web resources and services.